Orenge 7 — JL6148 — position and weather

sailwx.info

Track history (hours):
 
Tides and Currents Weather Stations Pressure Air Temp Water Temp Dewpoint Dewpoint Depression Visibility Wind Speed Wind Dir Waves Ship Positions

Orenge 7

Last reported at 2017-Mar-23 23:25 UTC. Time now 2017-Mar-24 00:07 UTC.
Position N 34°37' E 135°26'.

Length 163 m; draft 4.9 m.

Type: Passenger vessel. MMSI: 431500186.

Date/timePositionNaut miles runAvg speedWind from/ knotsBaromVisibWave heightAir tempDewpointWater temp
2017-Mar-23 23:25N 34°37' E 135°26'0 0.0
2017-Mar-23 22:31N 34°37' E 135°26'0 0.0
2017-Mar-23 21:31N 34°37' E 135°26'6 6.7
2017-Mar-23 20:33N 34°36' E 135°18'1716.8
2017-Mar-23 19:33N 34°36' E 134°58'1 0.0
2017-Mar-22 14:34N 34°37' E 134°58'1717.2
2017-Mar-22 13:34N 34°36' E 135°19'6 5.8
2017-Mar-22 12:31N 34°37' E 135°26'0 0.0
2017-Mar-22 11:25N 34°37' E 135°26'0 0.0
2017-Mar-22 10:19N 34°37' E 135°26'0 0.0
2017-Mar-22 09:31N 34°37' E 135°26'0 0.0
2017-Mar-22 08:31N 34°37' E 135°26'0 0.0
2017-Mar-22 07:31N 34°37' E 135°26'0 0.0
2017-Mar-22 06:31N 34°37' E 135°26'0 0.0
2017-Mar-22 05:31N 34°37' E 135°26'0 0.0
2017-Mar-22 04:31N 34°37' E 135°26'0 0.0
2017-Mar-22 03:31N 34°37' E 135°26'0 0.0
2017-Mar-22 02:31N 34°37' E 135°26'0 0.0
2017-Mar-22 01:31N 34°37' E 135°26'0 0.0
2017-Mar-22 00:31N 34°37' E 135°26'0 0.0
2017-Mar-21 22:13N 34°37' E 135°26'0 0.0
2017-Mar-21 21:31N 34°37' E 135°26'5 5.6
2017-Mar-21 20:33N 34°36' E 135°20'1817.6
2017-Mar-21 19:33N 34°36' E 134°58'11 0.4
2017-Mar-20 15:06N 34°33' E 134°46'1019.3
2017-Mar-20 14:34N 34°37' E 134°57'1817.7
2017-Mar-20 13:34N 34°37' E 135°19'6 5.3
2017-Mar-20 12:28N 34°37' E 135°26'0 0.0
2017-Mar-20 11:28N 34°37' E 135°26'0 0.0
2017-Mar-20 10:28N 34°37' E 135°26'0 0.0
2017-Mar-20 09:28N 34°37' E 135°26'0 0.0
2017-Mar-20 08:28N 34°37' E 135°26'0 0.0
2017-Mar-20 07:28N 34°37' E 135°26'0 0.0
2017-Mar-20 06:22N 34°37' E 135°26'0 0.0
2017-Mar-20 05:28N 34°37' E 135°26'0 0.0
2017-Mar-20 04:28N 34°37' E 135°26'0 0.0
2017-Mar-20 03:22N 34°37' E 135°26'0 0.0
2017-Mar-20 02:22N 34°37' E 135°26'0 0.0
2017-Mar-20 01:28N 34°37' E 135°26'0 0.0
2017-Mar-20 00:28N 34°37' E 135°26'0 0.0
2017-Mar-19 23:28N 34°37' E 135°26'0 0.0
2017-Mar-19 22:10N 34°37' E 135°26'0 0.0
2017-Mar-19 21:28N 34°37' E 135°26'5 5.9
2017-Mar-19 20:33N 34°36' E 135°19'1817.8
2017-Mar-19 19:33N 34°37' E 134°58'2 0.1
2017-Mar-18 14:33N 34°37' E 134°55'1918.7
2017-Mar-18 13:33N 34°36' E 135°18'7 6.1
2017-Mar-18 12:30N 34°37' E 135°26'0 0.0
2017-Mar-18 11:18N 34°37' E 135°26'0 0.0
2017-Mar-18 10:30N 34°37' E 135°26'0 0.0
2017-Mar-18 09:30N 34°37' E 135°26'0 0.0
2017-Mar-18 08:24N 34°37' E 135°26'0 0.0
2017-Mar-18 07:30N 34°37' E 135°26'0 0.0
2017-Mar-18 06:30N 34°37' E 135°26'0 0.0
2017-Mar-18 05:30N 34°37' E 135°26'0 0.0
2017-Mar-18 04:30N 34°37' E 135°26'0 0.0
2017-Mar-18 03:30N 34°37' E 135°26'0 0.0
2017-Mar-18 02:24N 34°37' E 135°26'0 0.0
2017-Mar-18 01:30N 34°37' E 135°26'0 0.0
2017-Mar-18 00:30N 34°37' E 135°26'0 0.0
2017-Mar-17 23:30N 34°37' E 135°26'0 0.0
2017-Mar-17 22:30N 34°37' E 135°26'0 0.0
2017-Mar-17 21:30N 34°37' E 135°26'5 5.6
2017-Mar-17 20:34N 34°36' E 135°20'1818.0
2017-Mar-17 19:33N 34°37' E 134°58'2 0.1
2017-Mar-16 14:34N 34°36' E 134°55'1919.3
2017-Mar-16 13:33N 34°36' E 135°18'6 4.9
2017-Mar-16 12:18N 34°37' E 135°26'0 0.0
2017-Mar-16 11:24N 34°37' E 135°26'0 0.0
2017-Mar-16 10:30N 34°37' E 135°26'0 0.0
2017-Mar-16 09:30N 34°37' E 135°26'0 0.0
2017-Mar-16 08:30N 34°37' E 135°26'0 0.0
2017-Mar-16 07:30N 34°37' E 135°26'0 0.0
2017-Mar-16 06:12N 34°37' E 135°26'0 0.0
2017-Mar-16 05:18N 34°37' E 135°26'0 0.0
2017-Mar-16 04:30N 34°37' E 135°26'0 0.0
2017-Mar-16 03:30N 34°37' E 135°26'0 0.0
2017-Mar-16 02:24N 34°37' E 135°26'0 0.0
2017-Mar-16 01:30N 34°37' E 135°26'0 0.0
2017-Mar-16 00:18N 34°37' E 135°26'0 0.0
2017-Mar-15 23:30N 34°37' E 135°26'0 0.0
2017-Mar-15 22:24N 34°37' E 135°26'0 0.0
2017-Mar-15 21:30N 34°37' E 135°26'5 5.7
2017-Mar-15 20:33N 34°36' E 135°19'1716.7
2017-Mar-15 19:33N 34°37' E 134°59'4 0.1
2017-Mar-14 14:32N 34°36' E 134°55'1919.4
2017-Mar-14 13:33N 34°36' E 135°18'6 5.6
2017-Mar-14 12:25N 34°37' E 135°26'0 0.0
2017-Mar-14 11:31N 34°37' E 135°26'0 0.0
2017-Mar-14 10:31N 34°37' E 135°26'0 0.0
2017-Mar-14 09:25N 34°37' E 135°26'0 0.0
2017-Mar-14 08:19N 34°37' E 135°26'0 0.0
2017-Mar-14 07:25N 34°37' E 135°26'0 0.0
2017-Mar-14 06:19N 34°37' E 135°26'0 0.0
2017-Mar-14 05:25N 34°37' E 135°26'0 0.0
2017-Mar-14 04:31N 34°37' E 135°26'0 0.0
2017-Mar-14 03:25N 34°37' E 135°26'0 0.0
2017-Mar-14 02:31N 34°37' E 135°26'0 0.0
2017-Mar-14 01:31N 34°37' E 135°26'0 0.0
2017-Mar-14 00:25N 34°37' E 135°26'0 0.0
2017-Mar-13 23:31N 34°37' E 135°26'  
Track history (hours):
 
Tides and Currents Weather Stations Pressure Air Temp Water Temp Dewpoint Dewpoint Depression Visibility Wind Speed Wind Dir Waves Ship Positions

Orenge 7

Last reported at 2017-Mar-23 23:25 UTC. Time now 2017-Mar-24 00:07 UTC.
Position N 34°37' E 135°26'.

Length 163 m; draft 4.9 m.

Type: Passenger vessel. MMSI: 431500186.

Date/timePositionNaut miles runAvg speedWind from/ knotsBaromVisibWave heightAir tempDewpointWater temp
2017-Mar-23 23:25N 34°37' E 135°26'0 0.0
2017-Mar-23 22:31N 34°37' E 135°26'0 0.0
2017-Mar-23 21:31N 34°37' E 135°26'6 6.7
2017-Mar-23 20:33N 34°36' E 135°18'1716.8
2017-Mar-23 19:33N 34°36' E 134°58'1 0.0
2017-Mar-22 14:34N 34°37' E 134°58'1717.2
2017-Mar-22 13:34N 34°36' E 135°19'6 5.8
2017-Mar-22 12:31N 34°37' E 135°26'0 0.0
2017-Mar-22 11:25N 34°37' E 135°26'0 0.0
2017-Mar-22 10:19N 34°37' E 135°26'0 0.0
2017-Mar-22 09:31N 34°37' E 135°26'0 0.0
2017-Mar-22 08:31N 34°37' E 135°26'0 0.0
2017-Mar-22 07:31N 34°37' E 135°26'0 0.0
2017-Mar-22 06:31N 34°37' E 135°26'0 0.0
2017-Mar-22 05:31N 34°37' E 135°26'0 0.0
2017-Mar-22 04:31N 34°37' E 135°26'0 0.0
2017-Mar-22 03:31N 34°37' E 135°26'0 0.0
2017-Mar-22 02:31N 34°37' E 135°26'0 0.0
2017-Mar-22 01:31N 34°37' E 135°26'0 0.0
2017-Mar-22 00:31N 34°37' E 135°26'0 0.0
2017-Mar-21 22:13N 34°37' E 135°26'0 0.0
2017-Mar-21 21:31N 34°37' E 135°26'5 5.6
2017-Mar-21 20:33N 34°36' E 135°20'1817.6
2017-Mar-21 19:33N 34°36' E 134°58'11 0.4
2017-Mar-20 15:06N 34°33' E 134°46'1019.3
2017-Mar-20 14:34N 34°37' E 134°57'1817.7
2017-Mar-20 13:34N 34°37' E 135°19'6 5.3
2017-Mar-20 12:28N 34°37' E 135°26'0 0.0
2017-Mar-20 11:28N 34°37' E 135°26'0 0.0
2017-Mar-20 10:28N 34°37' E 135°26'0 0.0
2017-Mar-20 09:28N 34°37' E 135°26'0 0.0
2017-Mar-20 08:28N 34°37' E 135°26'0 0.0
2017-Mar-20 07:28N 34°37' E 135°26'0 0.0
2017-Mar-20 06:22N 34°37' E 135°26'0 0.0
2017-Mar-20 05:28N 34°37' E 135°26'0 0.0
2017-Mar-20 04:28N 34°37' E 135°26'0 0.0
2017-Mar-20 03:22N 34°37' E 135°26'0 0.0
2017-Mar-20 02:22N 34°37' E 135°26'0 0.0
2017-Mar-20 01:28N 34°37' E 135°26'0 0.0
2017-Mar-20 00:28N 34°37' E 135°26'0 0.0
2017-Mar-19 23:28N 34°37' E 135°26'0 0.0
2017-Mar-19 22:10N 34°37' E 135°26'0 0.0
2017-Mar-19 21:28N 34°37' E 135°26'5 5.9
2017-Mar-19 20:33N 34°36' E 135°19'1817.8
2017-Mar-19 19:33N 34°37' E 134°58'2 0.1
2017-Mar-18 14:33N 34°37' E 134°55'1918.7
2017-Mar-18 13:33N 34°36' E 135°18'7 6.1
2017-Mar-18 12:30N 34°37' E 135°26'0 0.0
2017-Mar-18 11:18N 34°37' E 135°26'0 0.0
2017-Mar-18 10:30N 34°37' E 135°26'0 0.0
2017-Mar-18 09:30N 34°37' E 135°26'0 0.0
2017-Mar-18 08:24N 34°37' E 135°26'0 0.0
2017-Mar-18 07:30N 34°37' E 135°26'0 0.0
2017-Mar-18 06:30N 34°37' E 135°26'0 0.0
2017-Mar-18 05:30N 34°37' E 135°26'0 0.0
2017-Mar-18 04:30N 34°37' E 135°26'0 0.0
2017-Mar-18 03:30N 34°37' E 135°26'0 0.0
2017-Mar-18 02:24N 34°37' E 135°26'0 0.0
2017-Mar-18 01:30N 34°37' E 135°26'0 0.0
2017-Mar-18 00:30N 34°37' E 135°26'0 0.0
2017-Mar-17 23:30N 34°37' E 135°26'0 0.0
2017-Mar-17 22:30N 34°37' E 135°26'0 0.0
2017-Mar-17 21:30N 34°37' E 135°26'5 5.6
2017-Mar-17 20:34N 34°36' E 135°20'1818.0
2017-Mar-17 19:33N 34°37' E 134°58'2 0.1
2017-Mar-16 14:34N 34°36' E 134°55'1919.3
2017-Mar-16 13:33N 34°36' E 135°18'6 4.9
2017-Mar-16 12:18N 34°37' E 135°26'0 0.0
2017-Mar-16 11:24N 34°37' E 135°26'0 0.0
2017-Mar-16 10:30N 34°37' E 135°26'0 0.0
2017-Mar-16 09:30N 34°37' E 135°26'0 0.0
2017-Mar-16 08:30N 34°37' E 135°26'0 0.0
2017-Mar-16 07:30N 34°37' E 135°26'0 0.0
2017-Mar-16 06:12N 34°37' E 135°26'0 0.0
2017-Mar-16 05:18N 34°37' E 135°26'0 0.0
2017-Mar-16 04:30N 34°37' E 135°26'0 0.0
2017-Mar-16 03:30N 34°37' E 135°26'0 0.0
2017-Mar-16 02:24N 34°37' E 135°26'0 0.0
2017-Mar-16 01:30N 34°37' E 135°26'0 0.0
2017-Mar-16 00:18N 34°37' E 135°26'0 0.0
2017-Mar-15 23:30N 34°37' E 135°26'0 0.0
2017-Mar-15 22:24N 34°37' E 135°26'0 0.0
2017-Mar-15 21:30N 34°37' E 135°26'5 5.7
2017-Mar-15 20:33N 34°36' E 135°19'1716.7
2017-Mar-15 19:33N 34°37' E 134°59'4 0.1
2017-Mar-14 14:32N 34°36' E 134°55'1919.4
2017-Mar-14 13:33N 34°36' E 135°18'6 5.6
2017-Mar-14 12:25N 34°37' E 135°26'0 0.0
2017-Mar-14 11:31N 34°37' E 135°26'0 0.0
2017-Mar-14 10:31N 34°37' E 135°26'0 0.0
2017-Mar-14 09:25N 34°37' E 135°26'0 0.0
2017-Mar-14 08:19N 34°37' E 135°26'0 0.0
2017-Mar-14 07:25N 34°37' E 135°26'0 0.0
2017-Mar-14 06:19N 34°37' E 135°26'0 0.0
2017-Mar-14 05:25N 34°37' E 135°26'0 0.0
2017-Mar-14 04:31N 34°37' E 135°26'0 0.0
2017-Mar-14 03:25N 34°37' E 135°26'0 0.0
2017-Mar-14 02:31N 34°37' E 135°26'0 0.0
2017-Mar-14 01:31N 34°37' E 135°26'0 0.0
2017-Mar-14 00:25N 34°37' E 135°26'0 0.0
2017-Mar-13 23:31N 34°37' E 135°26'  

Dump ship's entire track history